Time,TemperatureF,DewpointF,PressureIn,WindDirection,WindDirectionDegrees,WindSpeedMPH,WindSpeedGustMPH,Humidity,HourlyPrecipIn,Conditions,Clouds,dailyrainin,SolarRadiationWatts/m^2,SoftwareType,DateUTC
2013-05-05 00:01:00,65.0,28.0,-100.00,North,0,9.0,18.0,25,0.00,,,0.00,1.000000,,2013-05-05 07:01:00,
2013-05-05 00:32:00,61.0,27.0,-100.00,NE,56,3.0,12.0,27,0.00,,,-99.99,1.000000,,2013-05-05 07:32:00,
2013-05-05 00:42:00,61.0,27.0,-100.00,NE,56,3.0,12.0,27,0.00,,,-99.99,1.000000,,2013-05-05 07:42:00,
2013-05-05 00:52:00,61.0,27.0,-100.00,NE,56,3.0,12.0,27,0.00,,,-99.99,1.000000,,2013-05-05 07:52:00,
2013-05-05 01:02:00,61.0,27.0,-100.00,NE,56,3.0,12.0,27,0.00,,,-99.99,1.000000,,2013-05-05 08:02:00,
2013-05-05 01:32:00,57.0,26.0,-100.00,SSW,203,4.0,12.0,30,0.00,,,0.00,1.000000,,2013-05-05 08:32:00,
2013-05-05 01:42:00,57.0,26.0,-100.00,SSW,203,4.0,12.0,30,0.00,,,0.00,1.000000,,2013-05-05 08:42:00,
2013-05-05 01:53:00,57.0,26.0,-100.00,SSW,203,4.0,12.0,30,0.00,,,0.00,1.000000,,2013-05-05 08:53:00,
2013-05-05 02:01:00,57.0,26.0,-100.00,SSW,203,4.0,12.0,30,0.00,,,0.00,1.000000,,2013-05-05 09:01:00,
2013-05-05 02:33:00,59.0,31.0,-100.00,North,349,2.0,9.0,35,0.00,,,0.00,1.000000,,2013-05-05 09:33:00,
2013-05-05 02:42:00,59.0,31.0,-100.00,North,349,2.0,9.0,35,0.00,,,0.00,1.000000,,2013-05-05 09:42:00,
2013-05-05 02:52:00,59.0,31.0,-100.00,North,349,2.0,9.0,35,0.00,,,0.00,1.000000,,2013-05-05 09:52:00,
2013-05-05 03:02:00,59.0,31.0,-100.00,North,349,2.0,9.0,35,0.00,,,0.00,1.000000,,2013-05-05 10:02:00,
2013-05-05 03:32:00,56.0,29.0,-100.00,North,352,3.0,7.0,36,0.00,,,0.00,1.000000,,2013-05-05 10:32:00,
2013-05-05 03:42:00,56.0,29.0,-100.00,North,352,3.0,7.0,36,0.00,,,0.00,1.000000,,2013-05-05 10:42:00,
2013-05-05 03:52:00,56.0,29.0,-100.00,North,352,3.0,7.0,36,0.00,,,0.00,1.000000,,2013-05-05 10:52:00,
2013-05-05 04:01:00,56.0,29.0,-100.00,North,352,3.0,7.0,36,0.00,,,0.00,1.000000,,2013-05-05 11:01:00,
2013-05-05 04:32:00,48.0,28.0,-100.00,SW,224,3.0,5.0,46,0.00,,,0.00,1.000000,,2013-05-05 11:32:00,
2013-05-05 04:42:00,48.0,28.0,-100.00,SW,224,3.0,5.0,46,0.00,,,0.00,1.000000,,2013-05-05 11:42:00,
2013-05-05 04:52:00,48.0,28.0,-100.00,SW,224,3.0,5.0,46,0.00,,,0.00,1.000000,,2013-05-05 11:52:00,
2013-05-05 05:01:00,48.0,28.0,-100.00,SW,224,3.0,5.0,46,0.00,,,0.00,1.000000,,2013-05-05 12:01:00,
2013-05-05 06:32:00,47.0,30.0,-100.00,SW,216,3.0,7.0,51,-99.99,,,0.00,5.000000,,2013-05-05 13:32:00,
2013-05-05 06:42:00,47.0,30.0,-100.00,SW,216,3.0,7.0,51,-99.99,,,0.00,5.000000,,2013-05-05 13:42:00,
2013-05-05 06:52:00,47.0,30.0,-100.00,SW,216,3.0,7.0,51,-99.99,,,0.00,5.000000,,2013-05-05 13:52:00,
2013-05-05 07:01:00,47.0,30.0,-100.00,SW,216,3.0,7.0,51,-99.99,,,0.00,5.000000,,2013-05-05 14:01:00,
2013-05-05 07:32:00,56.0,35.0,-100.00,SSW,206,3.0,5.0,45,0.00,,,0.00,101.000000,,2013-05-05 14:32:00,
2013-05-05 07:42:00,56.0,35.0,-100.00,SSW,206,3.0,5.0,45,0.00,,,0.00,101.000000,,2013-05-05 14:42:00,
2013-05-05 07:52:00,56.0,35.0,-100.00,SSW,206,3.0,5.0,45,0.00,,,0.00,101.000000,,2013-05-05 14:52:00,
2013-05-05 08:01:00,56.0,35.0,-100.00,SSW,206,3.0,5.0,45,0.00,,,0.00,101.000000,,2013-05-05 15:01:00,
2013-05-05 08:33:00,63.0,36.0,-100.00,WNW,283,2.0,5.0,37,0.00,,,0.00,266.000000,,2013-05-05 15:33:00,
2013-05-05 08:43:00,63.0,36.0,-100.00,WNW,283,2.0,5.0,37,0.00,,,0.00,266.000000,,2013-05-05 15:43:00,
2013-05-05 08:53:00,63.0,36.0,-100.00,WNW,283,2.0,5.0,37,0.00,,,0.00,266.000000,,2013-05-05 15:53:00,
2013-05-05 09:02:00,63.0,36.0,-100.00,WNW,283,2.0,5.0,37,0.00,,,0.00,266.000000,,2013-05-05 16:02:00,
2013-05-05 09:32:00,64.0,33.0,-100.00,NE,42,12.0,20.0,31,0.00,,,0.00,440.000000,,2013-05-05 16:32:00,
2013-05-05 09:42:00,64.0,33.0,-100.00,NE,42,12.0,20.0,31,0.00,,,0.00,440.000000,,2013-05-05 16:42:00,
2013-05-05 09:52:00,64.0,33.0,-100.00,NE,42,12.0,20.0,31,0.00,,,0.00,440.000000,,2013-05-05 16:52:00,
2013-05-05 10:02:00,64.0,33.0,-100.00,NE,42,12.0,20.0,31,0.00,,,0.00,440.000000,,2013-05-05 17:02:00,
2013-05-05 10:32:00,68.0,33.0,-100.00,NE,36,11.0,22.0,27,0.00,,,0.00,603.000000,,2013-05-05 17:32:00,
2013-05-05 10:42:00,68.0,33.0,-100.00,NE,36,11.0,22.0,27,0.00,,,0.00,603.000000,,2013-05-05 17:42:00,
2013-05-05 10:52:00,68.0,33.0,-100.00,NE,36,11.0,22.0,27,0.00,,,0.00,603.000000,,2013-05-05 17:52:00,
2013-05-05 11:01:00,68.0,33.0,-100.00,NE,36,11.0,22.0,27,0.00,,,0.00,603.000000,,2013-05-05 18:01:00,
2013-05-05 11:32:00,70.0,33.0,-100.00,NNE,22,14.0,21.0,25,0.00,,,0.00,738.000000,,2013-05-05 18:32:00,
2013-05-05 11:42:00,70.0,33.0,-100.00,NNE,22,14.0,21.0,25,0.00,,,0.00,738.000000,,2013-05-05 18:42:00,
2013-05-05 11:52:00,70.0,33.0,-100.00,NNE,22,14.0,21.0,25,0.00,,,0.00,738.000000,,2013-05-05 18:52:00,
2013-05-05 12:01:00,70.0,33.0,-100.00,NNE,22,14.0,21.0,25,0.00,,,0.00,738.000000,,2013-05-05 19:01:00,
2013-05-05 13:32:00,75.0,32.0,-100.00,NE,39,14.0,27.0,21,-99.99,,,0.00,877.000000,,2013-05-05 20:32:00,
2013-05-05 13:42:00,75.0,32.0,-100.00,NE,39,14.0,27.0,21,-99.99,,,0.00,877.000000,,2013-05-05 20:42:00,
2013-05-05 13:52:00,75.0,32.0,-100.00,NE,39,14.0,27.0,21,-99.99,,,0.00,877.000000,,2013-05-05 20:52:00,
2013-05-05 14:01:00,75.0,32.0,-100.00,NE,39,14.0,27.0,21,-99.99,,,0.00,877.000000,,2013-05-05 21:01:00,
2013-05-05 15:33:00,78.0,32.0,-100.00,NE,37,14.0,22.0,19,-99.99,,,0.00,812.000000,,2013-05-05 22:33:00,
2013-05-05 15:42:00,78.0,32.0,-100.00,NE,37,14.0,22.0,19,-99.99,,,0.00,812.000000,,2013-05-05 22:42:00,
2013-05-05 15:52:00,78.0,32.0,-100.00,NE,37,14.0,22.0,19,-99.99,,,0.00,812.000000,,2013-05-05 22:52:00,
2013-05-05 16:02:00,78.0,32.0,-100.00,NE,37,14.0,22.0,19,-99.99,,,0.00,812.000000,,2013-05-05 23:02:00,
2013-05-05 16:32:00,78.0,31.0,-100.00,NE,37,12.0,20.0,18,0.00,,,0.00,702.000000,,2013-05-05 23:32:00,
2013-05-05 16:42:00,78.0,31.0,-100.00,NE,37,12.0,20.0,18,0.00,,,0.00,702.000000,,2013-05-05 23:42:00,
2013-05-05 16:52:00,78.0,31.0,-100.00,NE,37,12.0,20.0,18,0.00,,,0.00,702.000000,,2013-05-05 23:52:00,
2013-05-05 17:01:00,78.0,31.0,-100.00,NE,37,12.0,20.0,18,0.00,,,0.00,702.000000,,2013-05-06 00:01:00,
2013-05-05 18:32:00,78.0,30.0,-100.00,NE,34,14.0,21.0,17,-99.99,,,0.00,386.000000,,2013-05-06 01:32:00,
2013-05-05 18:42:00,78.0,30.0,-100.00,NE,34,14.0,21.0,17,-99.99,,,0.00,386.000000,,2013-05-06 01:42:00,
2013-05-05 18:52:00,78.0,30.0,-100.00,NE,34,14.0,21.0,17,-99.99,,,0.00,386.000000,,2013-05-06 01:52:00,
2013-05-05 19:01:00,78.0,30.0,-100.00,NE,34,14.0,21.0,17,-99.99,,,0.00,386.000000,,2013-05-06 02:01:00,
2013-05-05 19:32:00,76.0,28.0,-100.00,NNE,28,11.0,19.0,17,0.00,,,0.00,212.000000,,2013-05-06 02:32:00,
2013-05-05 19:42:00,76.0,28.0,-100.00,NNE,28,11.0,19.0,17,0.00,,,0.00,212.000000,,2013-05-06 02:42:00,
2013-05-05 19:52:00,76.0,28.0,-100.00,NNE,28,11.0,19.0,17,0.00,,,0.00,212.000000,,2013-05-06 02:52:00,
2013-05-05 20:01:00,76.0,28.0,-100.00,NNE,28,11.0,19.0,17,0.00,,,0.00,212.000000,,2013-05-06 03:01:00,
2013-05-05 20:33:00,71.0,28.0,-100.00,North,10,6.0,17.0,20,0.00,,,0.00,44.000000,,2013-05-06 03:33:00,
2013-05-05 20:42:00,71.0,28.0,-100.00,North,10,6.0,17.0,20,0.00,,,0.00,44.000000,,2013-05-06 03:42:00,
2013-05-05 20:52:00,71.0,28.0,-100.00,North,10,6.0,17.0,20,0.00,,,0.00,44.000000,,2013-05-06 03:52:00,
2013-05-05 21:02:00,71.0,28.0,-100.00,North,10,6.0,17.0,20,0.00,,,0.00,44.000000,,2013-05-06 04:02:00,
2013-05-05 21:32:00,65.0,29.0,-100.00,NNW,328,4.0,7.0,26,0.00,,,0.00,2.000000,,2013-05-06 04:32:00,
2013-05-05 21:43:00,65.0,29.0,-100.00,NNW,328,4.0,7.0,26,0.00,,,0.00,2.000000,,2013-05-06 04:43:00,
2013-05-05 21:53:00,65.0,29.0,-100.00,NNW,328,4.0,7.0,26,0.00,,,0.00,2.000000,,2013-05-06 04:53:00,
2013-05-05 22:02:00,65.0,29.0,-100.00,NNW,328,4.0,7.0,26,0.00,,,0.00,2.000000,,2013-05-06 05:02:00,
2013-05-05 22:32:00,63.0,30.0,-100.00,SSW,204,2.0,7.0,29,0.00,,,0.00,1.000000,,2013-05-06 05:32:00,
2013-05-05 22:42:00,63.0,30.0,-100.00,SSW,204,2.0,7.0,29,0.00,,,0.00,1.000000,,2013-05-06 05:42:00,
2013-05-05 22:52:00,63.0,30.0,-100.00,SSW,204,2.0,7.0,29,0.00,,,0.00,1.000000,,2013-05-06 05:52:00,
2013-05-05 23:02:00,63.0,30.0,-100.00,SSW,204,2.0,7.0,29,0.00,,,0.00,1.000000,,2013-05-06 06:02:00,
2013-05-05 23:32:00,62.0,31.0,-100.00,NW,313,9.0,11.0,31,0.00,,,0.00,1.000000,,2013-05-06 06:32:00,
2013-05-05 23:42:00,62.0,31.0,-100.00,NW,313,9.0,11.0,31,0.00,,,0.00,1.000000,,2013-05-06 06:42:00,
2013-05-05 23:52:00,62.0,31.0,-100.00,NW,313,9.0,11.0,31,0.00,,,0.00,1.000000,,2013-05-06 06:52:00,